sensor_id;sensor_type;location;lat;lon;timestamp;P1;durP1;ratioP1;P2;durP2;ratioP2
35562;SDS011;21665;40.108;18.302;2023-02-01T00:00:34;25.92;;;24.20;;
35562;SDS011;21665;40.108;18.302;2023-02-01T00:03:01;25.88;;;24.13;;
35562;SDS011;21665;40.108;18.302;2023-02-01T00:05:28;26.25;;;24.55;;
35562;SDS011;21665;40.108;18.302;2023-02-01T00:07:55;26.17;;;24.45;;
35562;SDS011;21665;40.108;18.302;2023-02-01T00:10:21;25.92;;;24.08;;
35562;SDS011;21665;40.108;18.302;2023-02-01T00:12:48;26.45;;;24.63;;
35562;SDS011;21665;40.108;18.302;2023-02-01T00:15:15;26.42;;;24.58;;
35562;SDS011;21665;40.108;18.302;2023-02-01T00:17:41;26.85;;;24.90;;
35562;SDS011;21665;40.108;18.302;2023-02-01T00:20:08;26.33;;;24.48;;
35562;SDS011;21665;40.108;18.302;2023-02-01T00:22:35;26.08;;;24.55;;
35562;SDS011;21665;40.108;18.302;2023-02-01T00:25:02;25.52;;;24.02;;
35562;SDS011;21665;40.108;18.302;2023-02-01T00:27:29;25.85;;;24.15;;
35562;SDS011;21665;40.108;18.302;2023-02-01T00:29:56;26.15;;;24.23;;
35562;SDS011;21665;40.108;18.302;2023-02-01T00:32:23;26.65;;;24.80;;
35562;SDS011;21665;40.108;18.302;2023-02-01T00:34:49;25.58;;;23.88;;
35562;SDS011;21665;40.108;18.302;2023-02-01T00:37:16;25.85;;;23.63;;
35562;SDS011;21665;40.108;18.302;2023-02-01T00:39:45;25.92;;;24.08;;
35562;SDS011;21665;40.108;18.302;2023-02-01T00:42:12;25.88;;;24.27;;
35562;SDS011;21665;40.108;18.302;2023-02-01T00:44:38;25.52;;;23.70;;
35562;SDS011;21665;40.108;18.302;2023-02-01T00:47:07;25.02;;;23.10;;
35562;SDS011;21665;40.108;18.302;2023-02-01T00:49:33;24.60;;;22.98;;
35562;SDS011;21665;40.108;18.302;2023-02-01T00:52:00;24.20;;;22.60;;
35562;SDS011;21665;40.108;18.302;2023-02-01T00:54:27;24.83;;;22.90;;
35562;SDS011;21665;40.108;18.302;2023-02-01T00:56:54;24.15;;;22.50;;
35562;SDS011;21665;40.108;18.302;2023-02-01T00:59:20;23.65;;;21.95;;
35562;SDS011;21665;40.108;18.302;2023-02-01T01:01:47;22.95;;;21.40;;
35562;SDS011;21665;40.108;18.302;2023-02-01T01:04:13;22.60;;;21.30;;
35562;SDS011;21665;40.108;18.302;2023-02-01T01:06:40;23.02;;;21.73;;
35562;SDS011;21665;40.108;18.302;2023-02-01T01:09:07;23.20;;;21.85;;
35562;SDS011;21665;40.108;18.302;2023-02-01T01:11:37;24.50;;;22.67;;
35562;SDS011;21665;40.108;18.302;2023-02-01T01:14:06;24.33;;;22.20;;
35562;SDS011;21665;40.108;18.302;2023-02-01T01:16:35;24.27;;;22.45;;
35562;SDS011;21665;40.108;18.302;2023-02-01T01:19:02;23.45;;;22.02;;
35562;SDS011;21665;40.108;18.302;2023-02-01T01:21:29;23.73;;;22.23;;
35562;SDS011;21665;40.108;18.302;2023-02-01T01:23:56;24.02;;;22.23;;
35562;SDS011;21665;40.108;18.302;2023-02-01T01:26:24;24.00;;;22.50;;
35562;SDS011;21665;40.108;18.302;2023-02-01T01:28:54;24.00;;;22.60;;
35562;SDS011;21665;40.108;18.302;2023-02-01T01:31:21;23.67;;;22.33;;
35562;SDS011;21665;40.108;18.302;2023-02-01T01:33:49;24.52;;;22.35;;
35562;SDS011;21665;40.108;18.302;2023-02-01T01:36:18;23.98;;;22.48;;
35562;SDS011;21665;40.108;18.302;2023-02-01T01:38:46;23.88;;;22.35;;
35562;SDS011;21665;40.108;18.302;2023-02-01T01:41:14;23.73;;;22.40;;
35562;SDS011;21665;40.108;18.302;2023-02-01T01:43:58;24.67;;;23.20;;
35562;SDS011;21665;40.108;18.302;2023-02-01T01:51:40;24.35;;;22.95;;
35562;SDS011;21665;40.108;18.302;2023-02-01T01:56:43;24.65;;;22.98;;
35562;SDS011;21665;40.108;18.302;2023-02-01T01:59:13;23.98;;;22.67;;
35562;SDS011;21665;40.108;18.302;2023-02-01T02:01:41;24.50;;;23.00;;
35562;SDS011;21665;40.108;18.302;2023-02-01T02:04:07;24.15;;;22.75;;
35562;SDS011;21665;40.108;18.302;2023-02-01T02:07:08;25.10;;;23.50;;
35562;SDS011;21665;40.108;18.302;2023-02-01T02:09:32;24.65;;;23.17;;
35562;SDS011;21665;40.108;18.302;2023-02-01T02:11:58;25.02;;;23.20;;
35562;SDS011;21665;40.108;18.302;2023-02-01T02:14:25;24.48;;;22.98;;
35562;SDS011;21665;40.108;18.302;2023-02-01T02:25:40;23.55;;;22.00;;
35562;SDS011;21665;40.108;18.302;2023-02-01T02:34:18;23.63;;;22.23;;
35562;SDS011;21665;40.108;18.302;2023-02-01T02:37:29;22.90;;;21.40;;
35562;SDS011;21665;40.108;18.302;2023-02-01T02:40:16;22.83;;;21.50;;
35562;SDS011;21665;40.108;18.302;2023-02-01T02:46:00;22.35;;;20.85;;
35562;SDS011;21665;40.108;18.302;2023-02-01T02:49:06;23.08;;;21.40;;
35562;SDS011;21665;40.108;18.302;2023-02-01T02:51:55;23.58;;;21.48;;
35562;SDS011;21665;40.108;18.302;2023-02-01T02:54:47;22.63;;;21.00;;
35562;SDS011;21665;40.108;18.302;2023-02-01T02:57:20;22.10;;;20.65;;
35562;SDS011;21665;40.108;18.302;2023-02-01T03:00:08;23.02;;;21.35;;
35562;SDS011;21665;40.108;18.302;2023-02-01T03:02:58;22.55;;;21.00;;
35562;SDS011;21665;40.108;18.302;2023-02-01T03:05:45;22.00;;;20.50;;
35562;SDS011;21665;40.108;18.302;2023-02-01T03:08:23;21.33;;;20.05;;
35562;SDS011;21665;40.108;18.302;2023-02-01T03:21:27;20.13;;;18.33;;
35562;SDS011;21665;40.108;18.302;2023-02-01T03:24:01;19.35;;;18.20;;
35562;SDS011;21665;40.108;18.302;2023-02-01T03:26:35;19.35;;;17.90;;
35562;SDS011;21665;40.108;18.302;2023-02-01T03:29:17;19.77;;;18.05;;
35562;SDS011;21665;40.108;18.302;2023-02-01T03:31:49;19.30;;;18.02;;
35562;SDS011;21665;40.108;18.302;2023-02-01T03:34:16;19.52;;;17.85;;
35562;SDS011;21665;40.108;18.302;2023-02-01T03:36:48;18.88;;;17.75;;
35562;SDS011;21665;40.108;18.302;2023-02-01T03:42:21;19.88;;;18.42;;
35562;SDS011;21665;40.108;18.302;2023-02-01T03:45:00;20.02;;;18.52;;
35562;SDS011;21665;40.108;18.302;2023-02-01T03:47:37;20.63;;;19.10;;
35562;SDS011;21665;40.108;18.302;2023-02-01T03:50:12;20.60;;;19.30;;
35562;SDS011;21665;40.108;18.302;2023-02-01T03:55:28;21.58;;;20.02;;
35562;SDS011;21665;40.108;18.302;2023-02-01T04:00:33;22.17;;;20.45;;
35562;SDS011;21665;40.108;18.302;2023-02-01T04:03:00;21.40;;;19.90;;
35562;SDS011;21665;40.108;18.302;2023-02-01T04:05:37;22.02;;;20.20;;
35562;SDS011;21665;40.108;18.302;2023-02-01T04:08:07;21.80;;;20.30;;
35562;SDS011;21665;40.108;18.302;2023-02-01T04:10:33;22.08;;;20.42;;
35562;SDS011;21665;40.108;18.302;2023-02-01T04:13:06;22.38;;;20.77;;
35562;SDS011;21665;40.108;18.302;2023-02-01T04:15:33;22.58;;;21.08;;
35562;SDS011;21665;40.108;18.302;2023-02-01T04:18:00;22.20;;;20.73;;
35562;SDS011;21665;40.108;18.302;2023-02-01T04:20:27;22.02;;;20.42;;
35562;SDS011;21665;40.108;18.302;2023-02-01T04:22:54;22.52;;;20.67;;
35562;SDS011;21665;40.108;18.302;2023-02-01T04:25:21;21.73;;;20.23;;
35562;SDS011;21665;40.108;18.302;2023-02-01T04:27:48;21.83;;;20.13;;
35562;SDS011;21665;40.108;18.302;2023-02-01T04:30:14;20.60;;;19.20;;
35562;SDS011;21665;40.108;18.302;2023-02-01T04:32:41;19.63;;;18.48;;
35562;SDS011;21665;40.108;18.302;2023-02-01T04:35:11;20.63;;;18.98;;
35562;SDS011;21665;40.108;18.302;2023-02-01T04:37:38;20.20;;;18.73;;
35562;SDS011;21665;40.108;18.302;2023-02-01T04:40:05;19.60;;;18.40;;
35562;SDS011;21665;40.108;18.302;2023-02-01T04:42:32;19.23;;;17.83;;
35562;SDS011;21665;40.108;18.302;2023-02-01T04:44:58;19.35;;;18.15;;
35562;SDS011;21665;40.108;18.302;2023-02-01T04:47:25;19.55;;;18.05;;
35562;SDS011;21665;40.108;18.302;2023-02-01T04:49:51;20.00;;;18.55;;
35562;SDS011;21665;40.108;18.302;2023-02-01T04:52:21;20.02;;;18.73;;
35562;SDS011;21665;40.108;18.302;2023-02-01T04:54:48;20.42;;;18.85;;
35562;SDS011;21665;40.108;18.302;2023-02-01T04:57:15;20.33;;;19.02;;
35562;SDS011;21665;40.108;18.302;2023-02-01T04:59:42;20.83;;;19.30;;
35562;SDS011;21665;40.108;18.302;2023-02-01T05:02:08;21.10;;;19.70;;
35562;SDS011;21665;40.108;18.302;2023-02-01T05:04:35;20.77;;;19.40;;
35562;SDS011;21665;40.108;18.302;2023-02-01T05:07:01;20.75;;;19.33;;
35562;SDS011;21665;40.108;18.302;2023-02-01T05:09:28;20.92;;;19.13;;
35562;SDS011;21665;40.108;18.302;2023-02-01T05:11:57;21.00;;;19.50;;
35562;SDS011;21665;40.108;18.302;2023-02-01T05:14:42;20.33;;;19.20;;
35562;SDS011;21665;40.108;18.302;2023-02-01T05:17:09;20.88;;;19.58;;
35562;SDS011;21665;40.108;18.302;2023-02-01T05:19:35;21.17;;;19.45;;
35562;SDS011;21665;40.108;18.302;2023-02-01T05:22:02;20.60;;;19.15;;
35562;SDS011;21665;40.108;18.302;2023-02-01T05:24:28;20.92;;;19.58;;
35562;SDS011;21665;40.108;18.302;2023-02-01T05:26:58;20.88;;;19.52;;
35562;SDS011;21665;40.108;18.302;2023-02-01T05:29:24;20.08;;;18.80;;
35562;SDS011;21665;40.108;18.302;2023-02-01T05:31:51;20.27;;;18.92;;
35562;SDS011;21665;40.108;18.302;2023-02-01T05:34:18;20.50;;;19.08;;
35562;SDS011;21665;40.108;18.302;2023-02-01T05:36:45;21.55;;;19.73;;
35562;SDS011;21665;40.108;18.302;2023-02-01T05:39:12;20.35;;;18.73;;
35562;SDS011;21665;40.108;18.302;2023-02-01T05:41:39;20.33;;;19.00;;
35562;SDS011;21665;40.108;18.302;2023-02-01T05:44:05;18.55;;;17.55;;
35562;SDS011;21665;40.108;18.302;2023-02-01T05:46:35;19.45;;;18.23;;
35562;SDS011;21665;40.108;18.302;2023-02-01T05:49:02;20.25;;;18.80;;
35562;SDS011;21665;40.108;18.302;2023-02-01T05:51:29;20.70;;;19.17;;
35562;SDS011;21665;40.108;18.302;2023-02-01T05:53:55;20.70;;;19.40;;
35562;SDS011;21665;40.108;18.302;2023-02-01T05:56:22;21.60;;;20.10;;
35562;SDS011;21665;40.108;18.302;2023-02-01T05:58:49;21.58;;;20.08;;
35562;SDS011;21665;40.108;18.302;2023-02-01T06:01:15;22.75;;;20.77;;
35562;SDS011;21665;40.108;18.302;2023-02-01T06:03:42;24.17;;;22.23;;
35562;SDS011;21665;40.108;18.302;2023-02-01T06:06:08;24.92;;;23.27;;
35562;SDS011;21665;40.108;18.302;2023-02-01T06:08:35;25.58;;;23.60;;
35562;SDS011;21665;40.108;18.302;2023-02-01T06:11:05;24.60;;;22.90;;
35562;SDS011;21665;40.108;18.302;2023-02-01T06:13:32;25.13;;;23.13;;
35562;SDS011;21665;40.108;18.302;2023-02-01T06:15:59;24.77;;;22.75;;
35562;SDS011;21665;40.108;18.302;2023-02-01T06:18:26;25.45;;;23.45;;
35562;SDS011;21665;40.108;18.302;2023-02-01T06:20:56;25.30;;;23.40;;
35562;SDS011;21665;40.108;18.302;2023-02-01T06:23:26;25.30;;;23.30;;
35562;SDS011;21665;40.108;18.302;2023-02-01T06:26:04;26.38;;;24.02;;
35562;SDS011;21665;40.108;18.302;2023-02-01T06:28:34;25.55;;;23.15;;
35562;SDS011;21665;40.108;18.302;2023-02-01T06:31:04;25.63;;;23.77;;
35562;SDS011;21665;40.108;18.302;2023-02-01T06:36:02;25.90;;;23.75;;
35562;SDS011;21665;40.108;18.302;2023-02-01T06:38:32;27.13;;;24.50;;
35562;SDS011;21665;40.108;18.302;2023-02-01T06:41:00;25.92;;;23.25;;
35562;SDS011;21665;40.108;18.302;2023-02-01T06:43:28;26.17;;;23.50;;
35562;SDS011;21665;40.108;18.302;2023-02-01T06:45:59;25.40;;;22.83;;
35562;SDS011;21665;40.108;18.302;2023-02-01T06:48:27;25.75;;;23.05;;
35562;SDS011;21665;40.108;18.302;2023-02-01T06:50:59;25.90;;;23.40;;
35562;SDS011;21665;40.108;18.302;2023-02-01T06:53:27;25.57;;;23.03;;
35562;SDS011;21665;40.108;18.302;2023-02-01T06:55:54;26.13;;;23.08;;
35562;SDS011;21665;40.108;18.302;2023-02-01T06:58:30;24.08;;;21.38;;
35562;SDS011;21665;40.108;18.302;2023-02-01T07:00:58;21.77;;;19.60;;
35562;SDS011;21665;40.108;18.302;2023-02-01T07:03:30;21.00;;;19.13;;
35562;SDS011;21665;40.108;18.302;2023-02-01T07:05:57;20.52;;;18.95;;
35562;SDS011;21665;40.108;18.302;2023-02-01T07:08:28;20.10;;;18.60;;
35562;SDS011;21665;40.108;18.302;2023-02-01T07:11:09;21.70;;;19.65;;
35562;SDS011;21665;40.108;18.302;2023-02-01T07:13:37;22.98;;;20.02;;
35562;SDS011;21665;40.108;18.302;2023-02-01T07:16:06;22.25;;;20.30;;
35562;SDS011;21665;40.108;18.302;2023-02-01T07:18:44;21.98;;;20.00;;
35562;SDS011;21665;40.108;18.302;2023-02-01T07:21:18;22.10;;;20.42;;
35562;SDS011;21665;40.108;18.302;2023-02-01T07:23:45;22.23;;;20.33;;
35562;SDS011;21665;40.108;18.302;2023-02-01T07:26:15;22.00;;;20.08;;
35562;SDS011;21665;40.108;18.302;2023-02-01T07:28:45;22.92;;;20.63;;
35562;SDS011;21665;40.108;18.302;2023-02-01T07:31:13;23.52;;;21.23;;
35562;SDS011;21665;40.108;18.302;2023-02-01T07:33:44;22.55;;;20.55;;
35562;SDS011;21665;40.108;18.302;2023-02-01T07:36:12;22.42;;;20.38;;
35562;SDS011;21665;40.108;18.302;2023-02-01T07:38:50;24.27;;;19.98;;
35562;SDS011;21665;40.108;18.302;2023-02-01T07:41:18;22.55;;;20.45;;
35562;SDS011;21665;40.108;18.302;2023-02-01T07:43:44;23.02;;;21.23;;
35562;SDS011;21665;40.108;18.302;2023-02-01T07:46:11;22.98;;;20.90;;
35562;SDS011;21665;40.108;18.302;2023-02-01T07:48:40;22.50;;;20.70;;
35562;SDS011;21665;40.108;18.302;2023-02-01T07:51:14;23.10;;;21.10;;
35562;SDS011;21665;40.108;18.302;2023-02-01T07:53:45;24.20;;;21.70;;
35562;SDS011;21665;40.108;18.302;2023-02-01T07:56:18;23.83;;;21.70;;
35562;SDS011;21665;40.108;18.302;2023-02-01T07:58:54;23.60;;;21.13;;
35562;SDS011;21665;40.108;18.302;2023-02-01T08:01:22;25.27;;;21.85;;
35562;SDS011;21665;40.108;18.302;2023-02-01T08:03:52;23.13;;;21.10;;
35562;SDS011;21665;40.108;18.302;2023-02-01T08:06:20;23.23;;;20.95;;
35562;SDS011;21665;40.108;18.302;2023-02-01T08:08:53;22.52;;;20.63;;
35562;SDS011;21665;40.108;18.302;2023-02-01T08:11:21;24.20;;;21.85;;
35562;SDS011;21665;40.108;18.302;2023-02-01T08:13:48;24.52;;;22.10;;
35562;SDS011;21665;40.108;18.302;2023-02-01T08:16:19;22.25;;;20.48;;
35562;SDS011;21665;40.108;18.302;2023-02-01T08:18:46;22.42;;;20.40;;
35562;SDS011;21665;40.108;18.302;2023-02-01T08:21:20;24.52;;;21.60;;
35562;SDS011;21665;40.108;18.302;2023-02-01T08:23:49;22.60;;;20.52;;
35562;SDS011;21665;40.108;18.302;2023-02-01T08:26:18;22.20;;;20.35;;
35562;SDS011;21665;40.108;18.302;2023-02-01T08:28:52;21.30;;;19.60;;
35562;SDS011;21665;40.108;18.302;2023-02-01T08:31:24;20.95;;;19.25;;
35562;SDS011;21665;40.108;18.302;2023-02-01T08:33:53;22.88;;;20.30;;
35562;SDS011;21665;40.108;18.302;2023-02-01T08:36:24;22.27;;;20.17;;
35562;SDS011;21665;40.108;18.302;2023-02-01T08:39:10;21.13;;;19.52;;
35562;SDS011;21665;40.108;18.302;2023-02-01T08:42:17;20.90;;;19.40;;
35562;SDS011;21665;40.108;18.302;2023-02-01T08:45:02;21.50;;;19.60;;
35562;SDS011;21665;40.108;18.302;2023-02-01T08:47:33;21.83;;;20.13;;
35562;SDS011;21665;40.108;18.302;2023-02-01T08:50:03;22.60;;;20.48;;
35562;SDS011;21665;40.108;18.302;2023-02-01T08:52:30;21.73;;;20.05;;
35562;SDS011;21665;40.108;18.302;2023-02-01T08:54:56;21.00;;;19.52;;
35562;SDS011;21665;40.108;18.302;2023-02-01T08:57:26;20.98;;;19.02;;
35562;SDS011;21665;40.108;18.302;2023-02-01T08:59:52;21.48;;;19.77;;
35562;SDS011;21665;40.108;18.302;2023-02-01T09:04:53;21.67;;;20.05;;
35562;SDS011;21665;40.108;18.302;2023-02-01T09:07:21;20.70;;;18.88;;
35562;SDS011;21665;40.108;18.302;2023-02-01T09:09:48;20.67;;;19.08;;
35562;SDS011;21665;40.108;18.302;2023-02-01T09:12:14;20.67;;;19.27;;
35562;SDS011;21665;40.108;18.302;2023-02-01T09:14:43;20.50;;;19.08;;
35562;SDS011;21665;40.108;18.302;2023-02-01T09:17:09;20.63;;;19.15;;
35562;SDS011;21665;40.108;18.302;2023-02-01T09:19:39;20.75;;;19.35;;
35562;SDS011;21665;40.108;18.302;2023-02-01T09:22:06;20.27;;;19.08;;
35562;SDS011;21665;40.108;18.302;2023-02-01T09:24:32;20.88;;;19.60;;
35562;SDS011;21665;40.108;18.302;2023-02-01T09:26:59;20.77;;;19.35;;
35562;SDS011;21665;40.108;18.302;2023-02-01T09:29:28;21.50;;;19.98;;
35562;SDS011;21665;40.108;18.302;2023-02-01T09:31:54;22.40;;;20.50;;
35562;SDS011;21665;40.108;18.302;2023-02-01T09:34:24;21.27;;;19.67;;
35562;SDS011;21665;40.108;18.302;2023-02-01T09:36:50;20.40;;;19.10;;
35562;SDS011;21665;40.108;18.302;2023-02-01T09:39:20;20.80;;;19.35;;
35562;SDS011;21665;40.108;18.302;2023-02-01T09:47:17;21.83;;;20.42;;
35562;SDS011;21665;40.108;18.302;2023-02-01T09:49:48;21.90;;;20.60;;
35562;SDS011;21665;40.108;18.302;2023-02-01T09:55:26;22.40;;;20.73;;
35562;SDS011;21665;40.108;18.302;2023-02-01T09:58:09;22.63;;;21.08;;
35562;SDS011;21665;40.108;18.302;2023-02-01T10:00:57;22.88;;;21.38;;
35562;SDS011;21665;40.108;18.302;2023-02-01T10:03:32;22.65;;;21.25;;
35562;SDS011;21665;40.108;18.302;2023-02-01T10:18:08;23.42;;;21.70;;
35562;SDS011;21665;40.108;18.302;2023-02-01T10:24:09;24.67;;;22.80;;
35562;SDS011;21665;40.108;18.302;2023-02-01T10:26:44;22.95;;;21.35;;
35562;SDS011;21665;40.108;18.302;2023-02-01T10:29:17;23.08;;;21.70;;
35562;SDS011;21665;40.108;18.302;2023-02-01T10:31:48;24.17;;;22.27;;
35562;SDS011;21665;40.108;18.302;2023-02-01T10:36:56;24.58;;;22.77;;
35562;SDS011;21665;40.108;18.302;2023-02-01T10:39:35;23.65;;;22.33;;
35562;SDS011;21665;40.108;18.302;2023-02-01T10:42:02;24.05;;;22.38;;
35562;SDS011;21665;40.108;18.302;2023-02-01T10:44:30;24.85;;;22.73;;
35562;SDS011;21665;40.108;18.302;2023-02-01T10:47:02;23.48;;;22.08;;
35562;SDS011;21665;40.108;18.302;2023-02-01T10:49:43;24.95;;;23.35;;
35562;SDS011;21665;40.108;18.302;2023-02-01T10:55:27;23.95;;;22.10;;
35562;SDS011;21665;40.108;18.302;2023-02-01T10:57:58;24.33;;;22.42;;
35562;SDS011;21665;40.108;18.302;2023-02-01T11:00:27;24.58;;;22.60;;
35562;SDS011;21665;40.108;18.302;2023-02-01T11:03:18;24.67;;;22.92;;
35562;SDS011;21665;40.108;18.302;2023-02-01T11:06:51;24.58;;;22.92;;
35562;SDS011;21665;40.108;18.302;2023-02-01T11:09:22;24.38;;;22.77;;
35562;SDS011;21665;40.108;18.302;2023-02-01T11:11:53;25.40;;;23.38;;
35562;SDS011;21665;40.108;18.302;2023-02-01T11:14:38;24.50;;;22.77;;
35562;SDS011;21665;40.108;18.302;2023-02-01T11:19:47;25.60;;;23.67;;
35562;SDS011;21665;40.108;18.302;2023-02-01T11:22:24;24.25;;;22.77;;
35562;SDS011;21665;40.108;18.302;2023-02-01T11:24:56;24.70;;;23.08;;
35562;SDS011;21665;40.108;18.302;2023-02-01T11:27:26;25.00;;;23.25;;
35562;SDS011;21665;40.108;18.302;2023-02-01T11:29:56;26.05;;;24.20;;
35562;SDS011;21665;40.108;18.302;2023-02-01T11:32:29;24.52;;;22.80;;
35562;SDS011;21665;40.108;18.302;2023-02-01T11:37:41;24.30;;;22.70;;
35562;SDS011;21665;40.108;18.302;2023-02-01T11:41:27;24.58;;;23.02;;
35562;SDS011;21665;40.108;18.302;2023-02-01T12:06:11;25.35;;;23.63;;
35562;SDS011;21665;40.108;18.302;2023-02-01T12:32:06;25.23;;;23.38;;
35562;SDS011;21665;40.108;18.302;2023-02-01T12:40:45;25.70;;;23.98;;
35562;SDS011;21665;40.108;18.302;2023-02-01T12:47:24;25.77;;;24.08;;
35562;SDS011;21665;40.108;18.302;2023-02-01T12:53:19;25.80;;;24.20;;
35562;SDS011;21665;40.108;18.302;2023-02-01T12:56:00;25.42;;;23.83;;
35562;SDS011;21665;40.108;18.302;2023-02-01T12:58:42;25.27;;;23.38;;
35562;SDS011;21665;40.108;18.302;2023-02-01T13:01:33;26.13;;;24.33;;
35562;SDS011;21665;40.108;18.302;2023-02-01T13:06:50;25.25;;;23.70;;
35562;SDS011;21665;40.108;18.302;2023-02-01T13:18:59;25.02;;;23.27;;
35562;SDS011;21665;40.108;18.302;2023-02-01T13:25:44;24.40;;;22.73;;
35562;SDS011;21665;40.108;18.302;2023-02-01T13:28:18;24.60;;;23.10;;
35562;SDS011;21665;40.108;18.302;2023-02-01T13:31:04;24.85;;;23.30;;
35562;SDS011;21665;40.108;18.302;2023-02-01T13:36:48;25.40;;;23.70;;
35562;SDS011;21665;40.108;18.302;2023-02-01T13:39:36;25.02;;;23.42;;
35562;SDS011;21665;40.108;18.302;2023-02-01T13:44:55;24.98;;;23.30;;
35562;SDS011;21665;40.108;18.302;2023-02-01T13:47:31;25.05;;;23.48;;
35562;SDS011;21665;40.108;18.302;2023-02-01T13:55:47;25.42;;;23.80;;
35562;SDS011;21665;40.108;18.302;2023-02-01T13:58:41;27.67;;;25.88;;
35562;SDS011;21665;40.108;18.302;2023-02-01T14:11:38;26.98;;;24.98;;
35562;SDS011;21665;40.108;18.302;2023-02-01T14:14:52;25.25;;;23.77;;
35562;SDS011;21665;40.108;18.302;2023-02-01T14:19:27;38.15;;;34.35;;
35562;SDS011;21665;40.108;18.302;2023-02-01T14:28:25;25.38;;;23.58;;
35562;SDS011;21665;40.108;18.302;2023-02-01T14:30:54;25.25;;;23.55;;
35562;SDS011;21665;40.108;18.302;2023-02-01T14:33:25;25.08;;;23.58;;
35562;SDS011;21665;40.108;18.302;2023-02-01T14:36:01;25.17;;;23.65;;
35562;SDS011;21665;40.108;18.302;2023-02-01T14:38:34;24.50;;;23.00;;
35562;SDS011;21665;40.108;18.302;2023-02-01T14:41:16;25.73;;;23.67;;
35562;SDS011;21665;40.108;18.302;2023-02-01T14:50:17;25.05;;;23.08;;
35562;SDS011;21665;40.108;18.302;2023-02-01T14:52:31;24.67;;;23.17;;
35562;SDS011;21665;40.108;18.302;2023-02-01T14:55:03;24.70;;;23.08;;
35562;SDS011;21665;40.108;18.302;2023-02-01T14:57:36;24.52;;;22.70;;
35562;SDS011;21665;40.108;18.302;2023-02-01T15:00:11;27.73;;;25.58;;
35562;SDS011;21665;40.108;18.302;2023-02-01T15:02:47;26.13;;;24.23;;
35562;SDS011;21665;40.108;18.302;2023-02-01T15:05:24;25.00;;;23.20;;
35562;SDS011;21665;40.108;18.302;2023-02-01T15:08:04;25.20;;;23.48;;
35562;SDS011;21665;40.108;18.302;2023-02-01T15:11:00;27.33;;;25.30;;
35562;SDS011;21665;40.108;18.302;2023-02-01T15:13:34;27.48;;;25.35;;
35562;SDS011;21665;40.108;18.302;2023-02-01T15:16:14;27.60;;;25.40;;
35562;SDS011;21665;40.108;18.302;2023-02-01T15:18:43;30.35;;;27.38;;
35562;SDS011;21665;40.108;18.302;2023-02-01T15:21:20;28.38;;;25.90;;
35562;SDS011;21665;40.108;18.302;2023-02-01T15:24:03;26.67;;;24.48;;
35562;SDS011;21665;40.108;18.302;2023-02-01T15:26:37;27.65;;;25.08;;
35562;SDS011;21665;40.108;18.302;2023-02-01T15:29:04;26.77;;;24.50;;
35562;SDS011;21665;40.108;18.302;2023-02-01T15:34:10;26.27;;;23.85;;
35562;SDS011;21665;40.108;18.302;2023-02-01T15:36:37;25.98;;;23.27;;
35562;SDS011;21665;40.108;18.302;2023-02-01T15:39:15;25.33;;;23.00;;
35562;SDS011;21665;40.108;18.302;2023-02-01T15:42:09;30.90;;;26.30;;
35562;SDS011;21665;40.108;18.302;2023-02-01T15:44:45;27.90;;;24.90;;
35562;SDS011;21665;40.108;18.302;2023-02-01T15:47:19;28.77;;;25.67;;
35562;SDS011;21665;40.108;18.302;2023-02-01T15:49:55;27.52;;;24.73;;
35562;SDS011;21665;40.108;18.302;2023-02-01T15:55:02;27.20;;;24.48;;
35562;SDS011;21665;40.108;18.302;2023-02-01T15:57:35;27.48;;;23.85;;
35562;SDS011;21665;40.108;18.302;2023-02-01T16:00:07;25.45;;;23.20;;
35562;SDS011;21665;40.108;18.302;2023-02-01T16:02:57;26.92;;;24.42;;
35562;SDS011;21665;40.108;18.302;2023-02-01T16:05:28;25.73;;;23.30;;
35562;SDS011;21665;40.108;18.302;2023-02-01T16:08:30;27.23;;;24.42;;
35562;SDS011;21665;40.108;18.302;2023-02-01T16:11:30;34.90;;;27.17;;
35562;SDS011;21665;40.108;18.302;2023-02-01T16:14:05;31.30;;;28.10;;
35562;SDS011;21665;40.108;18.302;2023-02-01T16:16:32;30.25;;;27.25;;
35562;SDS011;21665;40.108;18.302;2023-02-01T16:18:59;29.90;;;26.95;;
35562;SDS011;21665;40.108;18.302;2023-02-01T16:21:31;29.35;;;26.48;;
35562;SDS011;21665;40.108;18.302;2023-02-01T16:26:51;26.15;;;23.63;;
35562;SDS011;21665;40.108;18.302;2023-02-01T16:29:25;26.75;;;24.45;;
35562;SDS011;21665;40.108;18.302;2023-02-01T16:34:28;27.08;;;24.58;;
35562;SDS011;21665;40.108;18.302;2023-02-01T18:46:32;52.08;;;36.25;;
35562;SDS011;21665;40.108;18.302;2023-02-01T19:01:52;55.90;;;39.80;;
35562;SDS011;21665;40.108;18.302;2023-02-01T19:04:19;50.13;;;38.25;;
35562;SDS011;21665;40.108;18.302;2023-02-01T19:06:45;62.92;;;40.53;;
35562;SDS011;21665;40.108;18.302;2023-02-01T19:09:12;50.75;;;39.17;;
35562;SDS011;21665;40.108;18.302;2023-02-01T19:11:39;58.28;;;39.80;;
35562;SDS011;21665;40.108;18.302;2023-02-01T19:14:05;49.58;;;38.67;;
35562;SDS011;21665;40.108;18.302;2023-02-01T19:16:33;48.97;;;37.88;;
35562;SDS011;21665;40.108;18.302;2023-02-01T19:19:09;51.67;;;37.20;;
35562;SDS011;21665;40.108;18.302;2023-02-01T19:21:37;55.88;;;36.88;;
35562;SDS011;21665;40.108;18.302;2023-02-01T19:24:04;47.13;;;35.58;;
35562;SDS011;21665;40.108;18.302;2023-02-01T19:26:31;51.83;;;37.78;;
35562;SDS011;21665;40.108;18.302;2023-02-01T19:28:58;52.03;;;39.45;;
35562;SDS011;21665;40.108;18.302;2023-02-01T19:31:25;45.50;;;35.53;;
35562;SDS011;21665;40.108;18.302;2023-02-01T19:33:52;47.13;;;35.95;;
35562;SDS011;21665;40.108;18.302;2023-02-01T19:36:19;49.03;;;37.40;;
35562;SDS011;21665;40.108;18.302;2023-02-01T19:38:45;49.78;;;39.33;;
35562;SDS011;21665;40.108;18.302;2023-02-01T19:41:12;54.80;;;37.83;;
35562;SDS011;21665;40.108;18.302;2023-02-01T19:43:38;45.38;;;37.83;;
35562;SDS011;21665;40.108;18.302;2023-02-01T19:46:05;49.47;;;38.58;;
35562;SDS011;21665;40.108;18.302;2023-02-01T19:48:32;48.03;;;38.88;;
35562;SDS011;21665;40.108;18.302;2023-02-01T19:51:02;44.03;;;36.92;;
35562;SDS011;21665;40.108;18.302;2023-02-01T19:53:31;42.80;;;34.67;;
35562;SDS011;21665;40.108;18.302;2023-02-01T19:56:01;44.60;;;35.88;;
35562;SDS011;21665;40.108;18.302;2023-02-01T19:58:28;45.58;;;35.83;;
35562;SDS011;21665;40.108;18.302;2023-02-01T20:00:55;41.67;;;35.30;;
35562;SDS011;21665;40.108;18.302;2023-02-01T20:03:22;38.50;;;33.55;;
35562;SDS011;21665;40.108;18.302;2023-02-01T20:05:56;42.75;;;34.47;;
35562;SDS011;21665;40.108;18.302;2023-02-01T20:08:24;38.20;;;34.20;;
35562;SDS011;21665;40.108;18.302;2023-02-01T20:10:51;38.15;;;33.28;;
35562;SDS011;21665;40.108;18.302;2023-02-01T20:13:17;36.67;;;32.80;;
35562;SDS011;21665;40.108;18.302;2023-02-01T20:15:45;38.53;;;32.78;;
35562;SDS011;21665;40.108;18.302;2023-02-01T20:18:11;36.38;;;32.78;;
35562;SDS011;21665;40.108;18.302;2023-02-01T20:20:39;34.90;;;31.33;;
35562;SDS011;21665;40.108;18.302;2023-02-01T20:23:06;39.42;;;33.65;;
35562;SDS011;21665;40.108;18.302;2023-02-01T20:25:36;36.30;;;32.10;;